Time;durP1;ratioP1;P1;durP2;ratioP2;P2;SDS_P1;SDS_P2;PMS_P1;PMS_P2;Temp;Humidity;BMP_temperature;BMP_pressure;BME280_temperature;BME280_humidity;BME280_pressure;Samples;Min_cycle;Max_cycle;Signal;HPM_P1;HPM_P2
2023/05/13 00:00:45;;;;;;;;;;;12.40;99.90;;;;;;5098561;27;20367;-77
2023/05/13 00:03:11;;;;;;;;;;;12.30;99.90;;;;;;5096471;27;19934;-77
2023/05/13 00:05:36;;;;;;;;;;;12.40;99.90;;;;;;5096127;27;20309;-77
2023/05/13 00:08:05;;;;;;;;;;;12.40;99.90;;;;;;5097341;27;19969;-78
2023/05/13 00:10:32;;;;;;;;;;;12.50;99.90;;;;;;5094373;27;20006;-77
2023/05/13 00:12:58;;;;;;;;;;;12.50;99.90;;;;;;5091666;27;20002;-78
2023/05/13 00:15:23;;;;;;;;;;;12.50;99.90;;;;;;5100254;27;19931;-77
2023/05/13 00:17:49;;;;;;;;;;;12.40;99.90;;;;;;5116362;27;19927;-78
2023/05/13 00:20:15;;;;;;;;;;;12.30;99.90;;;;;;5110254;27;19928;-77
2023/05/13 00:22:40;;;;;;;;;;;12.30;99.90;;;;;;5093917;27;20383;-77
2023/05/13 00:25:06;;;;;;;;;;;12.20;99.90;;;;;;5095200;27;19935;-77
2023/05/13 00:27:32;;;;;;;;;;;12.20;99.90;;;;;;5097629;27;19998;-77
2023/05/13 00:29:58;;;;;;;;;;;12.20;99.90;;;;;;5095090;27;20140;-77
2023/05/13 00:32:24;;;;;;;;;;;12.10;99.90;;;;;;5091786;27;19927;-77
2023/05/13 00:34:49;;;;;;;;;;;12.20;99.90;;;;;;5089950;27;20425;-78
2023/05/13 00:37:15;;;;;;;;;;;12.10;99.90;;;;;;5095483;27;20458;-77
2023/05/13 00:39:41;;;;;;;;;;;12.10;99.90;;;;;;5092469;27;19927;-77
2023/05/13 00:42:06;;;;;;;;;;;12.00;99.90;;;;;;5091371;27;19935;-77
2023/05/13 00:44:33;;;;;;;;;;;12.00;99.90;;;;;;5097553;27;20781;-78
2023/05/13 00:46:59;;;;;;;;;;;11.90;99.90;;;;;;5085592;27;20536;-78
2023/05/13 00:49:25;;;;;;;;;;;11.80;99.90;;;;;;5087103;27;19927;-77
2023/05/13 00:51:53;;;;;;;;;;;11.80;99.90;;;;;;5081790;27;19938;-77
2023/05/13 00:54:19;;;;;;;;;;;11.80;99.90;;;;;;5095074;27;19923;-77
2023/05/13 00:56:45;;;;;;;;;;;11.90;99.90;;;;;;5073713;27;19930;-77
2023/05/13 00:59:10;;;;;;;;;;;11.90;99.90;;;;;;5072891;27;19931;-77
2023/05/13 01:01:42;;;;;;;;;;;11.90;99.90;;;;;;5075274;27;19985;-77
2023/05/13 01:04:07;;;;;;;;;;;11.90;99.90;;;;;;5063060;27;19938;-77
2023/05/13 01:06:53;;;;;;;;;;;11.80;99.90;;;;;;5056763;27;19928;-77
2023/05/13 01:09:19;;;;;;;;;;;11.80;99.90;;;;;;5066578;27;20519;-77
2023/05/13 01:11:46;;;;;;;;;;;11.90;99.90;;;;;;5064389;27;19932;-77
2023/05/13 01:14:15;;;;;;;;;;;11.90;99.90;;;;;;5065049;27;19931;-77
2023/05/13 01:16:48;;;;;;;;;;;11.80;99.90;;;;;;5047992;27;19931;-77
2023/05/13 01:19:24;;;;;;;;;;;11.80;99.90;;;;;;5065167;27;19941;-77
2023/05/13 01:21:53;;;;;;;;;;;11.70;99.90;;;;;;5064041;27;19932;-77
2023/05/13 01:24:19;;;;;;;;;;;11.70;99.90;;;;;;5066527;27;20067;-77
2023/05/13 01:26:45;;;;;;;;;;;11.60;99.90;;;;;;5062875;27;19931;-77
2023/05/13 01:29:10;;;;;;;;;;;11.70;99.90;;;;;;5068316;27;20096;-77
2023/05/13 01:31:38;;;;;;;;;;;11.60;99.90;;;;;;5069259;27;19977;-77
2023/05/13 01:34:04;;;;;;;;;;;11.60;99.90;;;;;;5063523;27;19927;-77
2023/05/13 01:36:31;;;;;;;;;;;11.50;99.90;;;;;;5063871;27;20314;-77
2023/05/13 01:38:57;;;;;;;;;;;11.40;99.90;;;;;;5081390;27;20647;-77
2023/05/13 01:41:22;;;;;;;;;;;11.50;99.90;;;;;;5063850;27;19939;-77
2023/05/13 01:43:48;;;;;;;;;;;11.40;99.90;;;;;;5075546;27;19931;-77
2023/05/13 01:46:14;;;;;;;;;;;11.40;99.90;;;;;;5076938;27;19970;-77
2023/05/13 01:48:39;;;;;;;;;;;11.50;99.90;;;;;;5096113;27;21817;-77
2023/05/13 01:51:05;;;;;;;;;;;11.50;99.90;;;;;;5082861;27;19977;-77
2023/05/13 01:53:31;;;;;;;;;;;11.30;99.90;;;;;;5083971;27;19934;-77
2023/05/13 01:55:56;;;;;;;;;;;11.50;99.90;;;;;;5085079;27;19928;-77
2023/05/13 01:58:22;;;;;;;;;;;11.40;99.90;;;;;;5085779;27;19938;-77
2023/05/13 02:00:47;;;;;;;;;;;11.20;99.90;;;;;;5083190;27;19931;-77
2023/05/13 02:03:13;;;;;;;;;;;11.20;99.90;;;;;;5083137;27;19978;-77
2023/05/13 02:05:38;;;;;;;;;;;11.10;99.90;;;;;;5084404;27;20560;-77
2023/05/13 02:08:05;;;;;;;;;;;11.10;99.90;;;;;;5083933;27;19935;-77
2023/05/13 02:10:30;;;;;;;;;;;11.10;99.90;;;;;;5082696;27;19931;-77
2023/05/13 02:12:56;;;;;;;;;;;11.20;99.90;;;;;;5084779;27;20008;-78
2023/05/13 02:15:21;;;;;;;;;;;11.20;99.90;;;;;;5083977;27;19934;-77
2023/05/13 02:17:47;;;;;;;;;;;11.20;99.90;;;;;;5085222;27;20263;-77
2023/05/13 02:20:13;;;;;;;;;;;11.30;99.90;;;;;;5085605;27;19931;-77
2023/05/13 02:22:38;;;;;;;;;;;11.20;99.90;;;;;;5083273;27;19928;-77
2023/05/13 02:25:04;;;;;;;;;;;11.10;99.90;;;;;;5082689;27;20050;-77
2023/05/13 02:27:30;;;;;;;;;;;11.10;99.90;;;;;;5087606;27;20053;-77
2023/05/13 02:29:55;;;;;;;;;;;11.20;99.90;;;;;;5083493;27;20004;-77
2023/05/13 02:32:21;;;;;;;;;;;11.00;99.90;;;;;;5083608;27;19936;-77
2023/05/13 02:34:46;;;;;;;;;;;11.00;99.90;;;;;;5080462;27;20005;-77
2023/05/13 02:37:12;;;;;;;;;;;10.90;99.90;;;;;;5083449;27;19930;-77
2023/05/13 02:39:37;;;;;;;;;;;10.80;99.90;;;;;;5085523;27;19937;-77
2023/05/13 02:42:03;;;;;;;;;;;10.80;99.90;;;;;;5080791;27;19987;-78
2023/05/13 02:44:29;;;;;;;;;;;10.80;99.90;;;;;;5081927;27;19932;-77
2023/05/13 02:46:54;;;;;;;;;;;10.80;99.90;;;;;;5083224;27;20396;-77
2023/05/13 02:49:20;;;;;;;;;;;10.80;99.90;;;;;;5081887;27;19974;-77
2023/05/13 02:51:45;;;;;;;;;;;10.80;99.90;;;;;;5085532;27;20008;-77
2023/05/13 02:54:11;;;;;;;;;;;10.80;99.90;;;;;;5078076;27;19932;-77
2023/05/13 02:56:36;;;;;;;;;;;10.70;99.90;;;;;;5096289;27;20536;-77
2023/05/13 02:59:02;;;;;;;;;;;10.80;99.90;;;;;;5100155;27;19931;-77
2023/05/13 03:01:28;;;;;;;;;;;10.80;99.90;;;;;;5085612;27;20622;-77
2023/05/13 03:03:53;;;;;;;;;;;10.80;99.90;;;;;;5084663;27;21585;-77
2023/05/13 03:06:19;;;;;;;;;;;10.70;99.90;;;;;;5083158;27;19973;-77
2023/05/13 03:08:44;;;;;;;;;;;10.70;99.90;;;;;;5103844;27;20237;-77
2023/05/13 03:11:10;;;;;;;;;;;10.80;99.90;;;;;;5086045;27;19931;-77
2023/05/13 03:13:35;;;;;;;;;;;10.80;99.90;;;;;;5082774;27;19927;-77
2023/05/13 03:16:01;;;;;;;;;;;10.80;99.90;;;;;;5081063;27;20278;-77
2023/05/13 03:18:30;;;;;;;;;;;10.90;99.90;;;;;;5084295;27;19935;-77
2023/05/13 03:20:55;;;;;;;;;;;10.90;99.90;;;;;;5099264;27;19932;-77
2023/05/13 03:23:21;;;;;;;;;;;10.80;99.90;;;;;;5087472;27;19935;-77
2023/05/13 03:25:46;;;;;;;;;;;10.90;99.90;;;;;;5085652;27;20768;-77
2023/05/13 03:28:12;;;;;;;;;;;10.90;99.90;;;;;;5086661;27;20394;-77
2023/05/13 03:30:37;;;;;;;;;;;11.00;99.90;;;;;;5083579;27;20004;-77
2023/05/13 03:33:03;;;;;;;;;;;10.90;99.90;;;;;;5083614;27;22149;-77
2023/05/13 03:35:29;;;;;;;;;;;10.90;99.90;;;;;;5084235;27;20380;-78
2023/05/13 03:37:55;;;;;;;;;;;10.90;99.90;;;;;;5085220;27;19977;-78
2023/05/13 03:40:20;;;;;;;;;;;10.90;99.90;;;;;;5082564;27;19932;-77
2023/05/13 03:42:46;;;;;;;;;;;10.90;99.90;;;;;;5085204;27;19934;-77
2023/05/13 03:45:11;;;;;;;;;;;10.80;99.90;;;;;;5080006;27;19970;-77
2023/05/13 03:47:40;;;;;;;;;;;10.80;99.90;;;;;;5084049;27;19988;-77
2023/05/13 03:50:05;;;;;;;;;;;10.90;99.90;;;;;;5081188;27;19933;-77
2023/05/13 03:52:31;;;;;;;;;;;10.90;99.90;;;;;;5083361;27;19951;-77
2023/05/13 03:54:57;;;;;;;;;;;10.90;99.90;;;;;;5080690;27;19927;-77
2023/05/13 03:57:22;;;;;;;;;;;10.80;99.90;;;;;;5083096;27;19932;-77
2023/05/13 03:59:48;;;;;;;;;;;10.80;99.90;;;;;;5083147;27;19932;-77
2023/05/13 04:02:13;;;;;;;;;;;10.70;99.90;;;;;;5082764;27;19931;-77
2023/05/13 04:04:39;;;;;;;;;;;10.70;99.90;;;;;;5084028;27;19958;-77
2023/05/13 04:07:04;;;;;;;;;;;10.80;99.90;;;;;;5101534;27;19931;-76
2023/05/13 04:09:30;;;;;;;;;;;10.90;99.90;;;;;;5082960;27;19939;-77
2023/05/13 04:11:55;;;;;;;;;;;10.80;99.90;;;;;;5085891;27;19942;-77
2023/05/13 04:14:21;;;;;;;;;;;10.90;99.90;;;;;;5079437;27;19932;-76
2023/05/13 04:16:46;;;;;;;;;;;10.90;99.90;;;;;;5081933;27;19928;-77
2023/05/13 04:19:12;;;;;;;;;;;10.80;99.90;;;;;;5101825;27;19993;-77
2023/05/13 04:21:37;;;;;;;;;;;10.90;99.90;;;;;;5084082;27;20450;-77
2023/05/13 04:24:03;;;;;;;;;;;11.00;99.90;;;;;;5081445;27;19932;-77
2023/05/13 04:26:29;;;;;;;;;;;11.00;99.90;;;;;;5080638;27;19939;-77
2023/05/13 04:28:54;;;;;;;;;;;11.00;99.90;;;;;;5082347;27;19928;-77
2023/05/13 04:31:20;;;;;;;;;;;11.00;99.90;;;;;;5067512;27;20165;-77
2023/05/13 04:33:45;;;;;;;;;;;11.20;99.90;;;;;;5081235;27;20746;-77
2023/05/13 04:36:11;;;;;;;;;;;11.20;99.90;;;;;;5065705;27;20573;-77
2023/05/13 04:38:36;;;;;;;;;;;11.20;99.90;;;;;;5082503;27;19927;-77
2023/05/13 04:41:02;;;;;;;;;;;11.30;99.90;;;;;;5081332;27;19977;-77
2023/05/13 04:43:28;;;;;;;;;;;11.40;99.90;;;;;;5081689;27;19927;-77
2023/05/13 04:45:53;;;;;;;;;;;11.50;99.90;;;;;;5079573;27;19931;-77
2023/05/13 04:48:19;;;;;;;;;;;11.60;99.90;;;;;;5082971;27;19939;-77
2023/05/13 04:50:45;;;;;;;;;;;11.60;99.90;;;;;;5080895;27;19931;-77
2023/05/13 04:53:11;;;;;;;;;;;11.80;99.90;;;;;;5084874;27;19935;-77
2023/05/13 04:55:36;;;;;;;;;;;12.90;99.90;;;;;;5083601;27;19959;-77
2023/05/13 04:58:02;;;;;;;;;;;13.10;99.90;;;;;;5080844;27;19940;-77
2023/05/13 05:00:28;;;;;;;;;;;12.90;99.90;;;;;;5082299;27;19934;-77
2023/05/13 05:02:53;;;;;;;;;;;13.40;99.90;;;;;;5087394;27;20343;-77
2023/05/13 05:05:19;;;;;;;;;;;14.80;99.90;;;;;;5082471;27;20273;-77
2023/05/13 05:07:44;;;;;;;;;;;15.60;99.90;;;;;;5095681;27;19935;-77
2023/05/13 05:10:10;;;;;;;;;;;16.90;99.90;;;;;;5097466;27;20791;-77
2023/05/13 05:12:36;;;;;;;;;;;17.30;99.90;;;;;;5097652;28;20349;-77
2023/05/13 05:15:03;;;;;;;;;;;15.80;99.90;;;;;;5096020;27;20033;-77
2023/05/13 05:17:31;;;;;;;;;;;15.00;99.90;;;;;;5097381;27;19924;-77
2023/05/13 05:19:57;;;;;;;;;;;14.70;99.90;;;;;;5118205;27;20540;-77
2023/05/13 05:22:23;;;;;;;;;;;17.30;99.90;;;;;;5098574;28;19974;-78
2023/05/13 05:24:48;;;;;;;;;;;17.50;99.90;;;;;;5094720;27;19955;-77
2023/05/13 05:27:14;;;;;;;;;;;15.80;99.90;;;;;;5105531;27;19967;-78
2023/05/13 05:29:39;;;;;;;;;;;17.00;99.90;;;;;;5090219;27;19973;-78
2023/05/13 05:32:05;;;;;;;;;;;18.80;99.90;;;;;;5103154;27;19946;-78
2023/05/13 05:34:31;;;;;;;;;;;19.70;99.90;;;;;;5104092;27;19927;-77
2023/05/13 05:36:56;;;;;;;;;;;19.40;99.90;;;;;;5086981;27;20444;-77
2023/05/13 05:39:22;;;;;;;;;;;17.70;99.90;;;;;;5104261;27;19981;-77
2023/05/13 05:41:47;;;;;;;;;;;18.80;99.90;;;;;;5102616;27;19962;-77
2023/05/13 05:44:13;;;;;;;;;;;19.00;99.90;;;;;;5102290;27;19935;-77
2023/05/13 05:46:38;;;;;;;;;;;17.50;99.90;;;;;;5104515;27;19927;-77
2023/05/13 05:49:04;;;;;;;;;;;16.50;99.90;;;;;;5102598;27;19923;-77
2023/05/13 05:51:29;;;;;;;;;;;16.40;99.90;;;;;;5104502;27;19938;-78
2023/05/13 05:53:55;;;;;;;;;;;16.50;99.90;;;;;;5088143;27;19995;-77
2023/05/13 05:56:21;;;;;;;;;;;16.10;99.90;;;;;;5099608;27;19927;-77
2023/05/13 05:58:46;;;;;;;;;;;16.60;99.90;;;;;;5103583;27;19934;-77
2023/05/13 06:01:12;;;;;;;;;;;16.90;99.90;;;;;;5103857;27;19938;-77
2023/05/13 06:03:37;;;;;;;;;;;17.00;99.90;;;;;;5100938;27;19932;-77
2023/05/13 06:06:03;;;;;;;;;;;16.70;99.90;;;;;;5103518;27;19980;-77
2023/05/13 06:08:29;;;;;;;;;;;15.90;99.90;;;;;;5104890;27;19928;-77
2023/05/13 06:10:56;;;;;;;;;;;15.80;99.90;;;;;;5105133;27;20369;-77
2023/05/13 06:13:21;;;;;;;;;;;16.10;99.90;;;;;;5102355;27;19927;-77
2023/05/13 06:15:49;;;;;;;;;;;16.60;99.90;;;;;;5101205;27;20146;-77
2023/05/13 06:18:14;;;;;;;;;;;16.70;99.90;;;;;;5103524;27;20562;-77
2023/05/13 06:20:40;;;;;;;;;;;16.80;99.90;;;;;;5084055;27;19939;-77
2023/05/13 06:23:06;;;;;;;;;;;17.00;99.90;;;;;;5103910;27;19927;-77
2023/05/13 06:25:31;;;;;;;;;;;16.60;99.90;;;;;;5102491;27;19928;-77
2023/05/13 06:28:07;;;;;;;;;;;16.80;99.90;;;;;;5105289;27;19934;-77
2023/05/13 06:30:32;;;;;;;;;;;17.30;99.90;;;;;;5104066;27;20400;-77
2023/05/13 06:32:58;;;;;;;;;;;17.10;99.90;;;;;;5103336;27;19929;-78
2023/05/13 06:35:24;;;;;;;;;;;17.40;99.90;;;;;;5098918;27;20407;-77
2023/05/13 06:37:49;;;;;;;;;;;17.30;99.90;;;;;;5086830;27;19970;-77
2023/05/13 06:40:15;;;;;;;;;;;16.90;99.90;;;;;;5096839;27;19934;-77
2023/05/13 06:42:40;;;;;;;;;;;17.70;99.90;;;;;;5093640;27;19927;-77
2023/05/13 06:45:06;;;;;;;;;;;17.90;99.90;;;;;;5098388;27;19931;-77
2023/05/13 06:47:32;;;;;;;;;;;17.90;99.90;;;;;;5101229;27;19927;-77
2023/05/13 06:49:58;;;;;;;;;;;18.00;99.90;;;;;;5102861;27;19930;-77
2023/05/13 06:52:23;;;;;;;;;;;17.50;99.90;;;;;;5101613;27;19934;-77
2023/05/13 06:54:49;;;;;;;;;;;18.00;99.90;;;;;;5100311;27;20549;-77
2023/05/13 06:57:15;;;;;;;;;;;17.90;99.90;;;;;;5097554;27;19931;-78
2023/05/13 06:59:40;;;;;;;;;;;18.10;99.90;;;;;;5103954;27;20018;-78
2023/05/13 07:02:08;;;;;;;;;;;17.50;99.90;;;;;;5095011;27;19934;-78
2023/05/13 07:04:34;;;;;;;;;;;17.80;99.90;;;;;;5098327;27;19930;-77
2023/05/13 07:06:59;;;;;;;;;;;18.00;99.90;;;;;;5099366;27;20455;-77
2023/05/13 07:09:26;;;;;;;;;;;17.90;99.90;;;;;;5099444;27;19931;-77
2023/05/13 07:11:51;;;;;;;;;;;17.80;99.90;;;;;;5095822;27;20546;-77
2023/05/13 07:14:17;;;;;;;;;;;18.10;99.90;;;;;;5098577;27;20026;-78
2023/05/13 07:16:43;;;;;;;;;;;17.70;99.90;;;;;;5092239;28;19927;-77
2023/05/13 07:19:08;;;;;;;;;;;18.10;99.90;;;;;;5099214;27;19964;-78
2023/05/13 07:21:34;;;;;;;;;;;18.00;99.90;;;;;;5099909;27;20278;-78
2023/05/13 07:24:01;;;;;;;;;;;18.20;99.90;;;;;;5097964;27;20288;-77
2023/05/13 07:26:26;;;;;;;;;;;18.60;99.90;;;;;;5098147;27;20035;-78
2023/05/13 07:28:52;;;;;;;;;;;18.50;99.90;;;;;;5099652;27;20694;-77
2023/05/13 07:31:17;;;;;;;;;;;18.60;99.90;;;;;;5119721;27;19927;-78
2023/05/13 07:33:43;;;;;;;;;;;18.70;99.90;;;;;;5098749;27;19927;-77
2023/05/13 07:36:08;;;;;;;;;;;19.30;99.90;;;;;;5098326;27;20556;-78
2023/05/13 07:38:34;;;;;;;;;;;19.00;99.90;;;;;;5097960;27;20288;-78
2023/05/13 07:40:59;;;;;;;;;;;19.70;99.90;;;;;;5098397;27;20018;-78
2023/05/13 07:43:26;;;;;;;;;;;18.80;99.90;;;;;;5100707;27;19931;-77
2023/05/13 07:45:52;;;;;;;;;;;19.20;99.90;;;;;;5100642;27;19955;-78
2023/05/13 07:48:18;;;;;;;;;;;19.50;99.90;;;;;;5117882;27;20011;-78
2023/05/13 07:50:44;;;;;;;;;;;19.40;99.90;;;;;;5084557;27;19934;-78
2023/05/13 07:53:10;;;;;;;;;;;18.80;99.90;;;;;;5098446;27;20754;-78
2023/05/13 07:55:35;;;;;;;;;;;19.40;99.90;;;;;;5099059;27;19928;-78
2023/05/13 07:58:01;;;;;;;;;;;19.40;99.90;;;;;;5077979;27;19980;-78
2023/05/13 08:00:27;;;;;;;;;;;18.80;99.90;;;;;;5118621;27;20277;-78
2023/05/13 08:02:52;;;;;;;;;;;19.60;99.90;;;;;;5114679;27;19927;-78
2023/05/13 08:05:18;;;;;;;;;;;19.80;99.90;;;;;;5108127;27;19961;-78
2023/05/13 08:07:43;;;;;;;;;;;20.00;99.90;;;;;;5089395;27;19965;-79
2023/05/13 08:10:09;;;;;;;;;;;19.80;99.90;;;;;;5087217;27;20128;-78
2023/05/13 08:12:35;;;;;;;;;;;19.70;99.90;;;;;;5113951;27;20649;-78
2023/05/13 08:15:02;;;;;;;;;;;19.70;99.90;;;;;;5094647;27;19928;-78
2023/05/13 08:17:28;;;;;;;;;;;19.90;99.90;;;;;;5097910;27;19981;-77
2023/05/13 08:19:53;;;;;;;;;;;20.10;99.90;;;;;;5097716;27;19973;-78
2023/05/13 08:22:19;;;;;;;;;;;20.50;99.90;;;;;;5099458;27;19935;-78
2023/05/13 08:24:45;;;;;;;;;;;20.40;99.90;;;;;;5097749;27;19927;-78
2023/05/13 08:27:11;;;;;;;;;;;20.80;99.90;;;;;;5095666;27;19931;-77
2023/05/13 08:29:37;;;;;;;;;;;20.80;99.90;;;;;;5095487;27;19978;-78
2023/05/13 08:32:02;;;;;;;;;;;20.90;99.90;;;;;;5093878;27;20467;-78
2023/05/13 08:34:28;;;;;;;;;;;21.10;99.90;;;;;;5114991;27;19927;-78
2023/05/13 08:36:54;;;;;;;;;;;20.90;99.90;;;;;;5095377;27;20334;-78
2023/05/13 08:39:19;;;;;;;;;;;21.10;99.90;;;;;;5091566;27;19934;-77
2023/05/13 08:41:45;;;;;;;;;;;21.30;99.90;;;;;;5116359;27;19927;-78
2023/05/13 08:44:12;;;;;;;;;;;21.10;99.90;;;;;;5094408;27;20010;-78
2023/05/13 08:46:39;;;;;;;;;;;21.70;99.90;;;;;;5098079;27;20168;-78
2023/05/13 08:49:04;;;;;;;;;;;21.50;99.90;;;;;;5117614;27;20001;-78
2023/05/13 08:51:30;;;;;;;;;;;21.50;99.90;;;;;;5093188;27;20380;-78
2023/05/13 08:53:56;;;;;;;;;;;21.40;99.90;;;;;;5111039;27;19934;-78
2023/05/13 08:56:24;;;;;;;;;;;21.60;99.90;;;;;;5091063;27;19927;-78
2023/05/13 08:58:49;;;;;;;;;;;21.70;99.90;;;;;;5098396;27;19927;-78
2023/05/13 09:01:15;;;;;;;;;;;21.90;99.90;;;;;;5094884;27;19931;-78
2023/05/13 09:03:50;;;;;;;;;;;22.30;99.90;;;;;;5096523;27;19962;-78
2023/05/13 09:06:15;;;;;;;;;;;22.10;99.90;;;;;;5114404;27;19927;-78
2023/05/13 09:08:41;;;;;;;;;;;22.00;99.90;;;;;;5095094;28;20522;-78
2023/05/13 09:11:06;;;;;;;;;;;22.20;99.90;;;;;;5091128;27;19931;-78
2023/05/13 09:13:32;;;;;;;;;;;22.30;99.90;;;;;;5114211;27;19935;-78
2023/05/13 09:15:57;;;;;;;;;;;22.50;99.90;;;;;;5112122;27;20376;-78
2023/05/13 09:18:28;;;;;;;;;;;22.50;99.90;;;;;;5095391;28;20398;-79
2023/05/13 09:20:53;;;;;;;;;;;22.60;99.90;;;;;;5114069;27;19931;-78
2023/05/13 09:23:19;;;;;;;;;;;22.40;99.90;;;;;;5109237;27;19931;-79
2023/05/13 09:25:44;;;;;;;;;;;22.50;99.90;;;;;;5107665;28;19927;-79
2023/05/13 09:28:13;;;;;;;;;;;22.20;99.90;;;;;;5116606;28;20326;-79
2023/05/13 09:30:40;;;;;;;;;;;22.80;99.90;;;;;;5114657;28;20300;-79
2023/05/13 09:33:06;;;;;;;;;;;22.60;99.90;;;;;;5113212;28;19953;-78
2023/05/13 09:35:32;;;;;;;;;;;22.90;99.90;;;;;;5115323;27;19927;-78
2023/05/13 09:37:57;;;;;;;;;;;23.00;99.90;;;;;;5122854;27;19989;-78
2023/05/13 09:40:23;;;;;;;;;;;23.00;99.90;;;;;;5112948;28;19931;-78
2023/05/13 09:42:48;;;;;;;;;;;23.30;99.90;;;;;;5099211;28;19931;-79
2023/05/13 09:45:15;;;;;;;;;;;23.10;99.90;;;;;;5114254;28;19927;-78
2023/05/13 09:47:40;;;;;;;;;;;23.30;99.90;;;;;;5113663;28;19923;-78
2023/05/13 09:50:07;;;;;;;;;;;23.50;99.90;;;;;;5114231;28;20612;-79
2023/05/13 09:52:34;;;;;;;;;;;23.70;99.90;;;;;;5112007;28;19931;-79
2023/05/13 09:55:03;;;;;;;;;;;23.30;99.90;;;;;;5109375;28;19928;-79
2023/05/13 09:57:29;;;;;;;;;;;22.60;99.90;;;;;;5095276;28;20008;-79
2023/05/13 09:59:58;;;;;;;;;;;23.10;99.90;;;;;;5111348;28;19939;-79
2023/05/13 10:02:25;;;;;;;;;;;23.30;99.90;;;;;;5109335;28;20026;-78
2023/05/13 10:04:52;;;;;;;;;;;23.90;99.90;;;;;;5110569;28;19927;-78
2023/05/13 10:07:23;;;;;;;;;;;23.40;99.90;;;;;;5114138;28;20011;-78
2023/05/13 10:09:50;;;;;;;;;;;23.60;99.90;;;;;;5110831;28;19928;-78
2023/05/13 10:12:17;;;;;;;;;;;23.60;99.90;;;;;;5116749;27;20033;-78
2023/05/13 10:14:43;;;;;;;;;;;23.10;99.90;;;;;;5099170;27;19923;-79
2023/05/13 10:17:08;;;;;;;;;;;23.60;99.90;;;;;;5091720;27;20299;-78
2023/05/13 10:19:35;;;;;;;;;;;24.20;99.90;;;;;;5097392;27;19934;-78
2023/05/13 10:22:00;;;;;;;;;;;24.10;99.90;;;;;;5095967;27;19931;-79
2023/05/13 10:24:27;;;;;;;;;;;24.30;99.90;;;;;;5095490;28;19935;-79
2023/05/13 10:26:53;;;;;;;;;;;24.80;99.90;;;;;;5098171;27;20014;-79
2023/05/13 10:29:20;;;;;;;;;;;24.50;99.90;;;;;;5101003;27;20022;-79
2023/05/13 10:31:46;;;;;;;;;;;23.80;99.60;;;;;;5097759;27;19927;-79
2023/05/13 10:34:12;;;;;;;;;;;23.70;99.60;;;;;;5094620;27;20281;-79
2023/05/13 10:37:00;;;;;;;;;;;23.90;99.90;;;;;;5120403;27;19934;-79
2023/05/13 10:39:45;;;;;;;;;;;24.10;99.90;;;;;;5085644;27;19934;-78
2023/05/13 10:42:41;;;;;;;;;;;24.20;99.90;;;;;;5096124;27;20411;-79
2023/05/13 10:45:08;;;;;;;;;;;24.40;99.90;;;;;;5083117;27;19933;-78
2023/05/13 10:47:34;;;;;;;;;;;24.80;99.90;;;;;;5101101;27;20564;-79
2023/05/13 10:50:04;;;;;;;;;;;24.30;99.70;;;;;;5100203;27;19934;-78
2023/05/13 10:52:45;;;;;;;;;;;24.40;98.50;;;;;;5100544;27;19927;-78
2023/05/13 10:55:16;;;;;;;;;;;23.70;99.90;;;;;;5098582;27;19935;-78
2023/05/13 10:57:41;;;;;;;;;;;24.60;99.90;;;;;;5083385;27;19963;-79
2023/05/13 11:00:14;;;;;;;;;;;24.70;99.90;;;;;;5117021;27;20050;-78
2023/05/13 11:02:40;;;;;;;;;;;23.70;98.50;;;;;;5120640;27;19996;-79
2023/05/13 11:05:05;;;;;;;;;;;24.20;99.70;;;;;;5117508;27;20604;-79
2023/05/13 11:07:31;;;;;;;;;;;24.20;97.80;;;;;;5117326;27;20422;-78
2023/05/13 11:10:00;;;;;;;;;;;24.50;98.00;;;;;;5103217;27;20269;-78
2023/05/13 11:12:25;;;;;;;;;;;24.40;99.90;;;;;;5098264;27;20451;-78
2023/05/13 11:14:54;;;;;;;;;;;24.80;99.90;;;;;;5101092;27;19981;-78
2023/05/13 11:17:20;;;;;;;;;;;24.10;99.20;;;;;;5115270;27;19927;-79
2023/05/13 11:19:46;;;;;;;;;;;23.90;98.70;;;;;;5081742;27;19934;-78
2023/05/13 11:22:15;;;;;;;;;;;24.00;98.50;;;;;;5077574;27;19931;-78
2023/05/13 11:24:44;;;;;;;;;;;24.60;98.70;;;;;;5093812;27;19990;-78
2023/05/13 11:27:16;;;;;;;;;;;24.30;92.80;;;;;;5091332;27;20519;-78
2023/05/13 11:29:49;;;;;;;;;;;24.00;96.40;;;;;;5089716;27;19928;-78
2023/05/13 11:32:35;;;;;;;;;;;24.80;97.10;;;;;;5083651;27;19927;-79
2023/05/13 11:35:00;;;;;;;;;;;25.40;97.30;;;;;;5083697;27;20018;-79
2023/05/13 11:37:26;;;;;;;;;;;24.80;90.10;;;;;;5080945;27;19931;-79
2023/05/13 11:39:51;;;;;;;;;;;25.50;94.40;;;;;;5098658;27;19984;-78
2023/05/13 11:42:17;;;;;;;;;;;24.80;90.20;;;;;;5097251;27;20000;-79
2023/05/13 11:44:46;;;;;;;;;;;25.10;95.40;;;;;;5098167;27;19932;-79
2023/05/13 11:47:11;;;;;;;;;;;24.30;90.90;;;;;;5096157;27;19931;-78
2023/05/13 11:49:45;;;;;;;;;;;25.10;93.90;;;;;;5119274;27;20507;-78
2023/05/13 11:52:10;;;;;;;;;;;25.40;95.20;;;;;;5097455;27;19933;-78
2023/05/13 11:54:43;;;;;;;;;;;25.60;95.40;;;;;;5096763;27;19928;-79
2023/05/13 11:57:22;;;;;;;;;;;24.80;90.90;;;;;;5094552;27;19934;-78
2023/05/13 12:00:07;;;;;;;;;;;24.40;92.90;;;;;;5088733;27;20026;-78
2023/05/13 12:02:37;;;;;;;;;;;24.60;90.10;;;;;;5108458;27;19952;-77
2023/05/13 12:05:04;;;;;;;;;;;24.70;90.40;;;;;;5093519;27;19931;-78
2023/05/13 12:07:30;;;;;;;;;;;25.20;92.20;;;;;;5086727;27;20054;-77
2023/05/13 12:09:56;;;;;;;;;;;25.70;93.90;;;;;;5094681;27;20468;-77
2023/05/13 12:12:22;;;;;;;;;;;25.10;91.90;;;;;;5089379;27;19928;-78
2023/05/13 12:14:51;;;;;;;;;;;25.20;88.30;;;;;;5109485;27;19931;-77
2023/05/13 12:17:18;;;;;;;;;;;24.60;86.20;;;;;;5092584;27;19930;-78
2023/05/13 12:20:02;;;;;;;;;;;24.40;87.60;;;;;;5097985;27;20026;-76
2023/05/13 12:22:28;;;;;;;;;;;25.00;87.50;;;;;;5093546;27;19927;-77
2023/05/13 12:24:53;;;;;;;;;;;25.20;91.80;;;;;;5086989;27;19927;-77
2023/05/13 12:27:20;;;;;;;;;;;25.30;90.90;;;;;;5093500;27;21384;-78
2023/05/13 12:29:46;;;;;;;;;;;25.30;91.40;;;;;;5089790;27;19939;-77
2023/05/13 12:32:15;;;;;;;;;;;24.50;84.70;;;;;;5099140;27;19939;-78
2023/05/13 12:34:46;;;;;;;;;;;24.20;78.20;;;;;;5094905;28;19935;-77
2023/05/13 12:37:12;;;;;;;;;;;24.60;82.30;;;;;;5094717;27;20032;-77
2023/05/13 12:39:40;;;;;;;;;;;24.80;88.90;;;;;;5084041;27;20034;-78
2023/05/13 12:42:12;;;;;;;;;;;24.40;81.10;;;;;;5083331;27;19932;-76
2023/05/13 12:44:37;;;;;;;;;;;25.10;83.30;;;;;;5096391;27;19927;-77
2023/05/13 12:47:05;;;;;;;;;;;24.10;78.10;;;;;;5078535;27;19934;-77
2023/05/13 12:49:30;;;;;;;;;;;24.90;87.10;;;;;;5099392;27;19935;-77
2023/05/13 12:51:56;;;;;;;;;;;25.40;90.30;;;;;;5115090;27;19927;-77
2023/05/13 12:54:22;;;;;;;;;;;26.10;91.10;;;;;;5096982;27;19927;-77
2023/05/13 12:56:47;;;;;;;;;;;25.80;89.90;;;;;;5094025;27;20130;-77
2023/05/13 12:59:13;;;;;;;;;;;25.70;85.20;;;;;;5100805;27;19924;-78
2023/05/13 13:01:39;;;;;;;;;;;26.10;90.60;;;;;;5099253;27;20649;-77
2023/05/13 13:04:05;;;;;;;;;;;24.90;86.50;;;;;;5116792;27;20503;-77
2023/05/13 13:06:31;;;;;;;;;;;24.60;90.70;;;;;;5099413;27;19934;-77
2023/05/13 13:08:56;;;;;;;;;;;24.70;87.60;;;;;;5101130;28;19942;-77
2023/05/13 13:11:22;;;;;;;;;;;25.20;89.60;;;;;;5082031;28;20362;-78
2023/05/13 13:13:48;;;;;;;;;;;24.80;89.90;;;;;;5097942;27;19970;-77
2023/05/13 13:16:14;;;;;;;;;;;24.60;89.20;;;;;;5114569;27;20013;-77
2023/05/13 13:18:40;;;;;;;;;;;25.60;91.80;;;;;;5113423;27;20520;-77
2023/05/13 13:21:06;;;;;;;;;;;25.20;90.00;;;;;;5091860;28;19928;-79
2023/05/13 13:23:32;;;;;;;;;;;24.30;81.50;;;;;;5094407;28;19931;-77
2023/05/13 13:25:58;;;;;;;;;;;23.80;82.20;;;;;;5095814;28;19930;-77
2023/05/13 13:28:27;;;;;;;;;;;24.10;86.40;;;;;;5098714;28;19928;-78
2023/05/13 13:30:53;;;;;;;;;;;24.50;87.20;;;;;;5096815;28;19935;-78
2023/05/13 13:33:18;;;;;;;;;;;24.90;87.00;;;;;;5112490;27;19931;-77
2023/05/13 13:35:45;;;;;;;;;;;25.10;87.90;;;;;;5113432;27;19934;-78
2023/05/13 13:38:11;;;;;;;;;;;24.40;79.10;;;;;;5099673;28;20014;-77
2023/05/13 13:40:37;;;;;;;;;;;24.50;78.10;;;;;;5111448;27;19987;-78
2023/05/13 13:43:04;;;;;;;;;;;24.60;88.00;;;;;;5098394;28;19931;-78
2023/05/13 13:45:30;;;;;;;;;;;24.30;80.20;;;;;;5097545;28;19949;-78
2023/05/13 13:47:55;;;;;;;;;;;25.10;81.80;;;;;;5117512;27;19935;-78
2023/05/13 13:50:21;;;;;;;;;;;25.20;86.70;;;;;;5100171;27;19931;-79
2023/05/13 13:52:46;;;;;;;;;;;24.30;81.60;;;;;;5119936;27;19981;-78
2023/05/13 13:55:13;;;;;;;;;;;23.30;81.20;;;;;;5121443;27;19931;-78
2023/05/13 13:57:39;;;;;;;;;;;24.10;88.40;;;;;;5116752;27;19934;-78
2023/05/13 14:00:05;;;;;;;;;;;24.90;92.00;;;;;;5117755;27;19928;-79
2023/05/13 14:02:30;;;;;;;;;;;25.30;89.20;;;;;;5113863;27;19935;-80
2023/05/13 14:04:56;;;;;;;;;;;25.50;90.40;;;;;;5102640;27;19927;-79
2023/05/13 14:07:22;;;;;;;;;;;25.20;83.90;;;;;;5118830;27;19927;-79
2023/05/13 14:09:48;;;;;;;;;;;25.70;86.80;;;;;;5101525;27;19927;-78
2023/05/13 14:12:14;;;;;;;;;;;25.10;80.80;;;;;;5110459;27;19993;-78